Time;durP1;ratioP1;P1;durP2;ratioP2;P2;SDS_P1;SDS_P2;PMS_P1;PMS_P2;Temp;Humidity;BMP_temperature;BMP_pressure;BME280_temperature;BME280_humidity;BME280_pressure;Samples;Min_cycle;Max_cycle;Signal;HPM_P1;HPM_P2
2023/04/18 00:02:01;;;;;;;11.43;6.00;;;;;;;12.33;54.89;100007.88;5040221;28;20397;-74
2023/04/18 00:04:27;;;;;;;13.93;6.47;;;;;;;12.31;54.72;100001.75;5039066;28;20478;-74
2023/04/18 00:06:52;;;;;;;12.83;6.43;;;;;;;12.31;54.74;99993.81;5040325;28;20017;-74
2023/04/18 00:09:17;;;;;;;13.53;6.97;;;;;;;12.34;54.65;99990.28;5040265;28;20029;-74
2023/04/18 00:11:43;;;;;;;14.02;6.40;;;;;;;12.35;54.76;99995.50;5040326;28;20079;-74
2023/04/18 00:14:09;;;;;;;13.70;6.27;;;;;;;12.37;54.58;99994.63;5040413;28;20053;-74
2023/04/18 00:16:35;;;;;;;12.15;6.80;;;;;;;12.38;54.69;99999.00;5039921;28;20104;-74
2023/04/18 00:19:02;;;;;;;12.53;6.23;;;;;;;12.40;54.56;100002.50;5040073;28;20057;-74
2023/04/18 00:21:28;;;;;;;13.57;6.53;;;;;;;12.39;54.42;99995.47;5039599;28;20032;-74
2023/04/18 00:23:54;;;;;;;12.75;6.43;;;;;;;12.38;54.52;99999.00;5039884;28;20033;-74
2023/04/18 00:26:19;;;;;;;11.80;6.50;;;;;;;12.34;54.54;99999.06;5040024;28;20021;-74
2023/04/18 00:28:45;;;;;;;14.13;6.57;;;;;;;12.28;54.76;99999.16;5040065;28;20017;-74
2023/04/18 00:31:10;;;;;;;13.73;6.33;;;;;;;12.26;55.03;99995.66;5039687;28;20032;-74
2023/04/18 00:33:35;;;;;;;12.85;6.30;;;;;;;12.22;54.76;99993.97;5039576;28;20108;-74
2023/04/18 00:36:01;;;;;;;11.13;5.90;;;;;;;12.18;54.92;99989.66;5042923;28;20029;-74
2023/04/18 00:38:26;;;;;;;12.07;5.70;;;;;;;12.17;55.21;99995.78;5049027;28;20053;-74
2023/04/18 00:40:51;;;;;;;11.27;6.17;;;;;;;12.13;55.04;99986.19;5039460;28;20045;-74
2023/04/18 00:43:17;;;;;;;13.20;6.27;;;;;;;12.06;55.06;99993.34;5039799;28;20026;-74
2023/04/18 00:45:43;;;;;;;11.80;5.80;;;;;;;11.98;55.31;99988.13;5039432;28;20060;-74
2023/04/18 00:48:09;;;;;;;12.90;5.60;;;;;;;11.94;55.15;99991.72;5039658;28;20489;-74
2023/04/18 00:50:36;;;;;;;9.57;5.05;;;;;;;11.91;55.45;99995.25;5039381;28;20510;-74
2023/04/18 00:53:01;;;;;;;11.23;5.15;;;;;;;11.94;55.10;99988.19;5039404;28;20052;-74
2023/04/18 00:55:28;;;;;;;9.10;4.60;;;;;;;11.94;55.12;99991.72;5039393;28;20025;-74
2023/04/18 00:57:53;;;;;;;11.07;5.07;;;;;;;11.94;54.90;99986.44;5038152;28;20087;-74
2023/04/18 01:00:19;;;;;;;9.07;4.90;;;;;;;11.94;55.08;99981.16;5039287;28;20021;-74
2023/04/18 01:02:45;;;;;;;10.50;5.15;;;;;;;11.93;54.87;99984.66;5039678;28;20021;-74
2023/04/18 01:05:11;;;;;;;10.13;5.20;;;;;;;11.90;54.84;99982.97;5039054;28;20041;-74
2023/04/18 01:07:39;;;;;;;9.33;4.80;;;;;;;11.85;55.19;99978.63;5038976;28;20029;-74
2023/04/18 01:10:05;;;;;;;11.05;5.25;;;;;;;11.75;55.20;99975.25;5038960;28;20025;-74
2023/04/18 01:12:31;;;;;;;10.23;4.80;;;;;;;11.65;55.33;99978.91;5039287;28;20033;-74
2023/04/18 01:14:56;;;;;;;8.88;4.68;;;;;;;11.54;55.91;99968.50;5038957;28;20544;-74
2023/04/18 01:17:22;;;;;;;9.20;4.60;;;;;;;11.46;55.95;99972.13;5039091;28;20045;-74
2023/04/18 01:19:47;;;;;;;9.90;5.00;;;;;;;11.43;55.84;99969.50;5038762;28;20041;-74
2023/04/18 01:22:13;;;;;;;9.98;4.70;;;;;;;11.43;55.44;99964.22;5038637;28;20049;-74
2023/04/18 01:24:39;;;;;;;10.10;4.83;;;;;;;11.43;55.46;99966.00;5038898;28;20021;-74
2023/04/18 01:27:05;;;;;;;11.02;5.00;;;;;;;11.42;55.86;99965.13;5038939;28;20036;-74
2023/04/18 01:29:30;;;;;;;9.50;4.90;;;;;;;11.38;55.27;99960.78;5034237;28;20112;-74
2023/04/18 01:31:56;;;;;;;9.53;4.43;;;;;;;11.32;55.78;99958.22;5037404;28;20029;-74
2023/04/18 01:34:22;;;;;;;13.47;4.93;;;;;;;11.29;55.54;99960.91;5038458;28;20083;-74
2023/04/18 01:36:47;;;;;;;12.43;5.20;;;;;;;11.28;55.79;99962.66;5048282;28;20401;-74
2023/04/18 01:39:13;;;;;;;9.90;4.80;;;;;;;11.28;55.95;99962.66;5040194;28;20021;-74
2023/04/18 01:41:40;;;;;;;9.20;4.35;;;;;;;11.28;56.14;99959.16;5038513;28;20571;-74
2023/04/18 01:44:05;;;;;;;8.70;4.78;;;;;;;11.24;55.96;99945.13;5037165;28;20518;-74
2023/04/18 01:46:31;;;;;;;8.80;5.00;;;;;;;11.13;55.88;99945.25;5038441;28;20389;-74
2023/04/18 01:48:57;;;;;;;11.83;4.87;;;;;;;11.08;56.21;99947.06;5038514;28;20068;-74
2023/04/18 01:51:23;;;;;;;8.85;4.82;;;;;;;11.05;56.35;99947.13;5036816;28;20021;-74
2023/04/18 01:53:49;;;;;;;10.03;5.17;;;;;;;10.97;56.41;99947.19;5038217;28;20036;-74
2023/04/18 01:56:14;;;;;;;9.20;4.68;;;;;;;10.87;56.75;99941.16;5038604;28;20036;-74
2023/04/18 01:58:40;;;;;;;9.67;4.70;;;;;;;10.80;56.99;99947.38;5036913;28;20025;-74
2023/04/18 02:01:06;;;;;;;9.95;4.43;;;;;;;10.79;56.81;99947.38;5038355;28;20024;-74
2023/04/18 02:03:31;;;;;;;9.83;4.77;;;;;;;10.79;56.59;99948.25;5036882;28;20030;-74
2023/04/18 02:05:57;;;;;;;8.82;4.55;;;;;;;10.80;56.65;99944.75;5037914;28;20108;-74
2023/04/18 02:08:22;;;;;;;11.87;5.17;;;;;;;10.73;56.53;99943.94;5038032;28;20072;-74
2023/04/18 02:10:47;;;;;;;8.20;4.17;;;;;;;10.67;56.78;99932.56;5036819;28;20026;-74
2023/04/18 02:13:14;;;;;;;9.83;4.73;;;;;;;10.65;56.96;99939.63;5037912;28;20029;-74
2023/04/18 02:15:39;;;;;;;9.40;4.80;;;;;;;10.63;57.23;99937.03;5037975;28;20030;-74
2023/04/18 02:18:05;;;;;;;8.93;4.23;;;;;;;10.65;57.04;99935.25;5037678;28;20038;-75
2023/04/18 02:20:32;;;;;;;9.98;4.65;;;;;;;10.66;56.98;99930.84;5037298;28;20036;-74
2023/04/18 02:23:01;;;;;;;9.07;4.60;;;;;;;10.66;56.88;99933.47;5035272;28;20037;-74
2023/04/18 02:25:27;;;;;;;9.75;4.88;;;;;;;10.63;56.73;99932.59;5036343;28;20044;-74
2023/04/18 02:27:54;;;;;;;9.35;4.88;;;;;;;10.58;57.15;99934.41;5036997;28;20104;-74
2023/04/18 02:30:19;;;;;;;9.33;4.50;;;;;;;10.50;57.24;99924.84;5037507;28;20562;-74
2023/04/18 02:32:45;;;;;;;10.00;4.38;;;;;;;10.44;57.03;99925.75;5037445;28;20096;-74
2023/04/18 02:35:11;;;;;;;11.33;4.87;;;;;;;10.38;57.37;99917.91;5037817;28;20037;-74
2023/04/18 02:37:37;;;;;;;9.48;4.63;;;;;;;10.34;57.30;99919.66;5049365;28;20087;-74
2023/04/18 02:40:03;;;;;;;9.93;4.93;;;;;;;10.34;57.61;99909.16;5037440;28;20025;-74
2023/04/18 02:42:29;;;;;;;9.32;4.55;;;;;;;10.31;57.52;99917.97;5037679;28;20530;-74
2023/04/18 02:44:55;;;;;;;10.52;5.00;;;;;;;10.29;57.54;99918.84;5037470;28;20029;-74
2023/04/18 02:47:20;;;;;;;11.47;4.90;;;;;;;10.27;57.23;99921.50;5037312;28;20047;-74
2023/04/18 02:49:46;;;;;;;11.27;5.10;;;;;;;10.20;57.46;99922.41;5036086;28;20378;-74
2023/04/18 02:52:11;;;;;;;9.95;4.97;;;;;;;10.14;57.48;99922.47;5036920;28;20196;-74
2023/04/18 02:54:36;;;;;;;9.23;4.77;;;;;;;10.07;57.81;99920.78;5037446;28;20035;-74
2023/04/18 02:57:02;;;;;;;11.57;5.33;;;;;;;10.04;57.89;99922.56;5037252;28;20497;-74
2023/04/18 02:59:27;;;;;;;10.87;5.50;;;;;;;10.05;57.98;99924.31;5036314;28;20092;-74
2023/04/18 03:01:53;;;;;;;10.00;5.35;;;;;;;10.05;57.84;99924.31;5036895;28;20025;-74
2023/04/18 03:04:18;;;;;;;10.57;5.17;;;;;;;10.03;58.07;99920.81;5037307;28;20033;-74
2023/04/18 03:06:44;;;;;;;12.23;6.00;;;;;;;9.98;57.87;99921.72;5037028;28;20056;-74
2023/04/18 03:09:09;;;;;;;11.37;5.40;;;;;;;9.90;58.17;99929.66;5037106;28;20061;-74
2023/04/18 03:11:35;;;;;;;10.02;5.20;;;;;;;9.82;58.34;99927.06;5036858;28;20037;-74
2023/04/18 03:14:00;;;;;;;13.03;5.63;;;;;;;9.77;58.58;99928.88;5037215;28;20628;-74
2023/04/18 03:16:25;;;;;;;11.07;5.60;;;;;;;9.70;58.36;99921.91;5036844;28;20060;-74
2023/04/18 03:18:51;;;;;;;12.00;5.23;;;;;;;9.68;58.80;99914.03;5036821;28;20195;-74
2023/04/18 03:21:16;;;;;;;11.10;5.70;;;;;;;9.69;58.60;99913.13;5035071;28;20033;-74
2023/04/18 03:23:42;;;;;;;10.53;5.37;;;;;;;9.73;58.44;99914.00;5035566;28;20040;-74
2023/04/18 03:26:08;;;;;;;10.47;5.23;;;;;;;9.73;58.48;99909.59;5037029;28;20029;-74
2023/04/18 03:28:33;;;;;;;12.05;5.75;;;;;;;9.74;58.40;99906.09;5034245;28;20121;-74
2023/04/18 03:30:59;;;;;;;10.27;5.13;;;;;;;9.73;58.41;99904.34;5036237;28;20072;-74
2023/04/18 03:33:24;;;;;;;10.43;5.40;;;;;;;9.71;58.39;99903.47;5036596;28;20033;-74
2023/04/18 03:35:49;;;;;;;10.63;4.80;;;;;;;9.68;58.02;99903.50;5038439;28;20034;-74
2023/04/18 03:38:15;;;;;;;10.03;5.13;;;;;;;9.64;58.36;99901.78;5048380;28;20036;-74
2023/04/18 03:40:43;;;;;;;10.13;5.17;;;;;;;9.60;58.37;99907.94;5036426;28;20074;-74
2023/04/18 03:43:08;;;;;;;10.90;4.95;;;;;;;9.56;58.64;99900.97;5036834;28;20539;-74
2023/04/18 03:45:34;;;;;;;11.07;5.00;;;;;;;9.49;58.89;99892.22;5036425;28;20448;-74
2023/04/18 03:47:59;;;;;;;9.77;4.97;;;;;;;9.44;58.80;99897.50;5036551;28;20028;-74
2023/04/18 03:50:24;;;;;;;9.53;4.80;;;;;;;9.43;58.93;99893.13;5036538;28;20025;-74
2023/04/18 03:52:51;;;;;;;10.60;5.27;;;;;;;9.42;58.61;99896.63;5035064;28;20417;-74
2023/04/18 03:55:17;;;;;;;10.23;5.57;;;;;;;9.41;58.52;99900.16;5036586;28;20049;-74
2023/04/18 03:57:43;;;;;;;10.45;5.43;;;;;;;9.39;58.63;99898.41;5036595;28;20071;-74
2023/04/18 04:00:09;;;;;;;11.97;5.47;;;;;;;9.34;58.52;99893.19;5035252;28;20071;-74
2023/04/18 04:02:35;;;;;;;10.80;4.97;;;;;;;9.28;58.66;99895.81;5036666;28;20112;-74
2023/04/18 04:05:02;;;;;;;11.33;5.70;;;;;;;9.25;58.97;99894.09;5036462;28;20033;-74
2023/04/18 04:07:27;;;;;;;11.27;5.65;;;;;;;9.22;59.07;99898.50;5035058;28;20075;-74
2023/04/18 04:09:52;;;;;;;10.27;4.93;;;;;;;9.12;59.25;99890.66;5036415;28;20038;-74
2023/04/18 04:12:18;;;;;;;10.43;5.03;;;;;;;9.08;59.38;99902.06;5036547;28;20029;-74
2023/04/18 04:14:43;;;;;;;12.23;5.47;;;;;;;9.04;59.33;99909.06;5036454;28;20068;-74
2023/04/18 04:17:09;;;;;;;10.10;4.53;;;;;;;9.02;59.39;99904.69;5036236;28;20113;-74
2023/04/18 04:19:34;;;;;;;12.23;5.00;;;;;;;9.02;59.31;99904.69;5036161;28;20128;-73
2023/04/18 04:22:00;;;;;;;10.27;5.22;;;;;;;9.05;59.13;99909.97;5036335;28;20077;-73
2023/04/18 04:24:25;;;;;;;12.10;5.33;;;;;;;9.07;59.02;99902.06;5034944;28;20458;-74
2023/04/18 04:26:51;;;;;;;12.87;5.57;;;;;;;9.02;58.88;99902.06;5036647;28;20034;-74
2023/04/18 04:29:17;;;;;;;10.68;5.50;;;;;;;8.93;59.09;99902.09;5024937;28;20740;-74
2023/04/18 04:31:43;;;;;;;13.95;5.50;;;;;;;8.82;59.23;99905.66;5036265;28;20029;-74
2023/04/18 04:34:08;;;;;;;10.70;5.50;;;;;;;8.71;59.54;99903.06;5036118;28;20025;-74
2023/04/18 04:36:34;;;;;;;12.53;5.20;;;;;;;8.66;59.81;99907.41;5044210;28;20036;-74
2023/04/18 04:39:02;;;;;;;10.95;5.68;;;;;;;8.64;59.83;99903.06;5039922;28;20029;-74
2023/04/18 04:41:28;;;;;;;11.30;5.40;;;;;;;8.63;60.03;99903.94;5036169;28;20436;-74
2023/04/18 04:43:53;;;;;;;10.63;5.20;;;;;;;8.64;59.78;99903.06;5037387;28;20029;-74
2023/04/18 04:46:19;;;;;;;12.85;5.60;;;;;;;8.69;59.79;99909.16;5039578;28;20164;-73
2023/04/18 04:48:45;;;;;;;10.77;5.20;;;;;;;8.70;59.51;99906.56;5038345;28;20502;-73
2023/04/18 04:51:10;;;;;;;11.80;5.32;;;;;;;8.67;59.59;99903.91;5039415;28;20029;-74
2023/04/18 04:53:35;;;;;;;11.47;5.93;;;;;;;8.63;59.23;99904.78;5038039;28;20033;-74
2023/04/18 04:56:03;;;;;;;12.00;5.33;;;;;;;8.57;59.94;99921.47;5039641;28;20044;-74
2023/04/18 04:58:29;;;;;;;11.95;5.07;;;;;;;8.56;59.85;99910.94;5039410;28;20025;-73
2023/04/18 05:00:55;;;;;;;12.30;5.57;;;;;;;8.55;59.57;99917.94;5039483;28;20063;-74
2023/04/18 05:03:21;;;;;;;10.98;5.88;;;;;;;8.53;59.49;99918.81;5039423;28;20056;-73
2023/04/18 05:05:46;;;;;;;11.23;5.25;;;;;;;8.50;59.75;99914.44;5039107;28;20040;-74
2023/04/18 05:08:12;;;;;;;10.07;4.90;;;;;;;8.47;59.54;99909.16;5039304;28;20109;-73
2023/04/18 05:10:37;;;;;;;11.37;5.43;;;;;;;8.46;59.76;99912.66;5039410;28;20284;-74
2023/04/18 05:13:03;;;;;;;13.10;5.83;;;;;;;8.42;59.75;99919.66;5038546;28;20022;-73
2023/04/18 05:15:30;;;;;;;12.85;6.47;;;;;;;8.33;59.91;99910.06;5037906;28;20040;-73
2023/04/18 05:17:56;;;;;;;13.60;6.18;;;;;;;8.28;60.34;99919.66;5037758;28;20111;-74
2023/04/18 05:20:22;;;;;;;13.97;6.47;;;;;;;8.27;60.25;99924.94;5038837;28;20038;-74
2023/04/18 05:22:47;;;;;;;12.00;5.82;;;;;;;8.28;60.17;99918.81;5035886;28;20025;-74
2023/04/18 05:25:13;;;;;;;12.33;5.50;;;;;;;8.29;60.17;99915.31;5034080;28;20033;-74
2023/04/18 05:27:39;;;;;;;13.30;6.20;;;;;;;8.31;60.29;99919.66;5037118;28;20043;-73
2023/04/18 05:30:05;;;;;;;15.05;6.07;;;;;;;8.36;60.34;99924.91;5038507;28;20032;-74
2023/04/18 05:32:31;;;;;;;12.15;6.70;;;;;;;8.39;60.07;99929.31;5037109;28;20037;-74
2023/04/18 05:34:56;;;;;;;11.37;5.73;;;;;;;8.41;59.94;99924.94;5037342;28;20056;-74
2023/04/18 05:37:21;;;;;;;12.77;6.20;;;;;;;8.42;59.73;99922.28;5038690;28;20033;-74
2023/04/18 05:39:47;;;;;;;12.88;5.82;;;;;;;8.44;60.01;99919.69;5035452;28;20350;-73
2023/04/18 05:42:12;;;;;;;18.60;6.93;;;;;;;8.44;60.04;99923.19;5037985;28;20029;-74
2023/04/18 05:44:38;;;;;;;12.80;5.80;;;;;;;8.42;60.21;99921.44;5037195;28;20033;-74
2023/04/18 05:47:04;;;;;;;13.30;5.80;;;;;;;8.51;60.07;99916.19;5037417;28;21055;-75
2023/04/18 05:49:30;;;;;;;13.05;6.45;;;;;;;8.66;59.67;99919.69;5038374;28;20017;-75
2023/04/18 05:51:56;;;;;;;16.13;6.10;;;;;;;8.79;59.53;99916.13;5032634;28;20434;-76
2023/04/18 05:54:23;;;;;;;11.53;6.63;;;;;;;9.08;58.81;99912.56;5031710;28;20077;-75
2023/04/18 05:56:49;;;;;;;13.77;6.60;;;;;;;9.22;58.71;99923.03;5028822;28;20596;-76
2023/04/18 05:59:15;;;;;;;14.73;6.85;;;;;;;9.52;57.65;99917.59;5035010;28;20049;-74
2023/04/18 06:01:40;;;;;;;17.47;6.77;;;;;;;9.80;57.13;99917.47;5038243;28;20021;-77
2023/04/18 06:04:07;;;;;;;15.93;7.50;;;;;;;10.03;57.07;99920.81;5026655;28;20022;-76
2023/04/18 06:06:33;;;;;;;16.30;7.35;;;;;;;10.29;56.58;99927.63;5033123;28;20453;-76
2023/04/18 06:08:59;;;;;;;15.07;7.65;;;;;;;10.54;56.11;99927.44;5029812;28;20100;-76
2023/04/18 06:11:24;;;;;;;14.40;7.33;;;;;;;10.74;55.53;99931.66;5037619;28;20492;-77
2023/04/18 06:13:50;;;;;;;15.18;7.60;;;;;;;10.83;55.76;99928.91;5037300;28;20026;-76
2023/04/18 06:16:15;;;;;;;15.97;7.80;;;;;;;10.87;55.74;99930.63;5037362;28;20571;-76
2023/04/18 06:18:40;;;;;;;17.27;8.47;;;;;;;10.86;55.84;99935.91;5036071;28;20100;-76
2023/04/18 06:21:06;;;;;;;15.53;8.20;;;;;;;10.89;56.10;99936.72;5037160;28;20025;-76
2023/04/18 06:23:31;;;;;;;16.38;8.40;;;;;;;10.84;56.67;99937.66;5030467;28;20171;-76
2023/04/18 06:25:57;;;;;;;15.33;7.50;;;;;;;10.76;56.70;99941.25;5029911;28;20025;-77
2023/04/18 06:28:23;;;;;;;14.82;7.10;;;;;;;10.84;56.98;99941.19;5037826;28;20059;-75
2023/04/18 06:30:49;;;;;;;13.80;7.13;;;;;;;10.85;56.75;99935.03;5031837;28;20034;-74
2023/04/18 06:33:14;;;;;;;16.83;7.15;;;;;;;10.93;56.72;99945.50;5035749;28;20029;-74
2023/04/18 06:35:40;;;;;;;15.13;6.77;;;;;;;10.97;57.11;99941.03;5037440;28;20095;-74
2023/04/18 06:38:05;;;;;;;15.73;7.30;;;;;;;10.96;57.65;99940.19;5037342;28;20079;-74
2023/04/18 06:40:31;;;;;;;15.70;7.80;;;;;;;10.96;58.17;99934.91;5037565;28;20029;-74
2023/04/18 06:42:56;;;;;;;17.23;8.20;;;;;;;10.89;58.07;99923.56;5037315;28;20060;-73
2023/04/18 06:45:22;;;;;;;16.23;7.27;;;;;;;10.96;58.40;99926.13;5037435;28;20056;-73
2023/04/18 06:47:47;;;;;;;16.47;7.37;;;;;;;11.00;58.27;99930.50;5037343;28;20037;-73
2023/04/18 06:50:13;;;;;;;16.00;7.43;;;;;;;11.10;58.52;99928.63;5037223;28;20288;-73
2023/04/18 06:52:43;;;;;;;15.07;7.45;;;;;;;11.22;58.16;99924.97;5036789;28;20378;-73
2023/04/18 06:55:09;;;;;;;13.73;7.07;;;;;;;11.37;58.09;99922.13;5030203;28;20041;-73
2023/04/18 06:57:36;;;;;;;13.80;6.63;;;;;;;11.56;57.94;99924.53;5030682;28;20033;-73
2023/04/18 07:00:03;;;;;;;13.13;6.87;;;;;;;11.75;57.56;99918.09;5030599;28;20033;-73
2023/04/18 07:02:28;;;;;;;12.68;6.85;;;;;;;11.81;57.27;99921.53;5035904;28;20035;-73
2023/04/18 07:04:53;;;;;;;13.33;6.70;;;;;;;11.85;57.08;99920.59;5036038;28;20033;-73
2023/04/18 07:07:19;;;;;;;15.48;7.80;;;;;;;11.85;57.13;99913.56;5035037;28;20029;-73
2023/04/18 07:09:44;;;;;;;13.57;7.07;;;;;;;11.94;56.67;99920.47;5037082;28;20072;-74
2023/04/18 07:12:10;;;;;;;15.10;7.50;;;;;;;12.06;57.03;99914.16;5037182;28;20036;-74
2023/04/18 07:14:35;;;;;;;13.30;7.30;;;;;;;12.21;56.33;99915.69;5034666;28;20025;-73
2023/04/18 07:17:01;;;;;;;14.97;6.93;;;;;;;12.36;55.96;99917.19;5035574;28;20112;-75
2023/04/18 07:19:26;;;;;;;11.75;6.28;;;;;;;12.56;55.55;99913.34;5036981;28;20057;-73
2023/04/18 07:21:52;;;;;;;13.33;6.17;;;;;;;12.74;55.38;99912.13;5036375;28;20095;-76
2023/04/18 07:24:18;;;;;;;12.20;7.00;;;;;;;12.96;55.04;99914.34;5027809;28;20029;-75
2023/04/18 07:26:44;;;;;;;12.40;6.47;;;;;;;13.11;54.67;99905.25;5035229;28;20059;-74
2023/04/18 07:29:09;;;;;;;14.57;6.72;;;;;;;13.24;54.06;99905.84;5033882;28;20104;-75
2023/04/18 07:31:35;;;;;;;13.60;6.27;;;;;;;13.33;54.15;99906.53;5046974;28;20757;-74
2023/04/18 07:34:00;;;;;;;13.60;7.13;;;;;;;13.44;53.78;99895.75;5036776;28;20033;-74
2023/04/18 07:36:27;;;;;;;11.60;6.78;;;;;;;13.63;53.79;99887.41;5035548;28;20025;-75
2023/04/18 07:38:52;;;;;;;12.73;6.60;;;;;;;13.86;53.18;99880.69;5036961;28;20036;-74
2023/04/18 07:41:17;;;;;;;12.27;6.40;;;;;;;14.01;53.36;99882.97;5036630;28;20026;-74
2023/04/18 07:43:43;;;;;;;11.90;6.73;;;;;;;14.19;53.13;99889.59;5036856;28;20029;-74
2023/04/18 07:46:09;;;;;;;14.83;6.23;;;;;;;14.32;52.82;99876.91;5036397;28;20032;-76
2023/04/18 07:48:34;;;;;;;12.70;6.75;;;;;;;14.41;52.41;99877.59;5027329;28;20033;-74
2023/04/18 07:51:00;;;;;;;11.40;6.03;;;;;;;14.41;52.70;99882.88;5036372;28;20080;-75
2023/04/18 07:53:25;;;;;;;13.60;6.50;;;;;;;14.56;52.73;99887.75;5036687;28;20029;-79
2023/04/18 07:55:50;;;;;;;13.73;6.72;;;;;;;14.70;52.37;99882.09;5035255;28;20044;-80
2023/04/18 07:58:16;;;;;;;12.33;7.10;;;;;;;14.75;51.56;99882.00;5036162;28;20049;-73
2023/04/18 08:00:43;;;;;;;12.80;6.57;;;;;;;14.97;51.92;99884.06;5027648;28;20462;-76
2023/04/18 08:03:10;;;;;;;11.32;6.75;;;;;;;15.24;51.38;99882.41;5034463;28;20033;-74
2023/04/18 08:05:37;;;;;;;11.57;6.05;;;;;;;15.44;51.20;99871.19;5027856;28;20029;-74
2023/04/18 08:08:02;;;;;;;11.25;6.18;;;;;;;15.76;50.64;99869.28;5032087;28;20105;-77
2023/04/18 08:10:27;;;;;;;14.40;7.07;;;;;;;15.93;50.15;99871.44;5032215;28;20179;-75
2023/04/18 08:12:53;;;;;;;12.30;6.53;;;;;;;16.07;49.87;99868.34;5028133;28;20033;-76
2023/04/18 08:15:18;;;;;;;13.70;6.97;;;;;;;16.17;49.82;99868.03;5033541;28;20877;-76
2023/04/18 08:17:47;;;;;;;11.07;6.07;;;;;;;16.24;49.98;99869.53;5030813;28;20470;-75
2023/04/18 08:20:14;;;;;;;13.00;6.63;;;;;;;16.29;49.46;99866.75;5038757;28;20045;-76
2023/04/18 08:22:40;;;;;;;9.93;5.88;;;;;;;16.25;49.37;99865.97;5036379;28;20037;-75
2023/04/18 08:25:06;;;;;;;13.60;6.22;;;;;;;16.29;49.39;99862.31;5033149;28;20026;-74
2023/04/18 08:27:31;;;;;;;12.60;6.03;;;;;;;16.44;49.51;99865.34;5036528;28;20457;-75
2023/04/18 08:29:57;;;;;;;10.57;5.53;;;;;;;16.65;48.89;99864.56;5033797;28;20120;-75
2023/04/18 08:32:22;;;;;;;10.83;5.67;;;;;;;16.75;49.00;99865.13;5027294;28;20030;-75
2023/04/18 08:34:48;;;;;;;9.90;5.07;;;;;;;16.90;48.86;99863.69;5022468;28;20033;-76
2023/04/18 08:37:13;;;;;;;11.07;5.97;;;;;;;17.04;48.38;99859.69;5034037;28;20036;-76
2023/04/18 08:39:39;;;;;;;9.30;5.13;;;;;;;17.18;48.35;99860.03;5024996;28;20072;-76
2023/04/18 08:42:05;;;;;;;9.90;5.80;;;;;;;17.30;48.30;99852.50;5037801;28;20032;-76
2023/04/18 08:44:31;;;;;;;10.35;5.60;;;;;;;17.37;48.05;99846.00;5037925;28;20060;-76
2023/04/18 08:46:58;;;;;;;9.38;5.40;;;;;;;17.49;47.95;99850.88;5038354;28;20083;-75
2023/04/18 08:49:24;;;;;;;10.40;6.05;;;;;;;17.55;47.76;99854.22;5037962;28;20492;-76
2023/04/18 08:51:50;;;;;;;10.87;6.27;;;;;;;17.59;47.92;99856.66;5037874;28;20030;-77
2023/04/18 08:54:17;;;;;;;12.07;6.13;;;;;;;17.69;47.72;99845.66;5036244;28;20029;-74
2023/04/18 08:56:43;;;;;;;12.23;6.25;;;;;;;17.78;47.29;99848.81;5036412;28;20091;-74
2023/04/18 08:59:10;;;;;;;11.52;6.25;;;;;;;17.86;47.13;99844.97;5037955;28;20022;-74
2023/04/18 09:01:56;;;;;;;10.85;5.50;;;;;;;17.90;46.61;99839.47;5034020;28;20027;-73
2023/04/18 09:04:47;;;;;;;11.70;4.87;;;;;;;18.03;46.75;99844.28;5032004;28;20029;-73
2023/04/18 09:07:25;;;;;;;10.02;5.60;;;;;;;18.24;45.87;99842.53;5024208;28;20029;-75
2023/04/18 09:09:53;;;;;;;10.20;4.88;;;;;;;18.36;46.38;99849.13;5036880;28;20038;-75
2023/04/18 09:12:21;;;;;;;10.10;5.55;;;;;;;18.42;45.72;99840.88;5037349;28;20059;-75
2023/04/18 09:14:49;;;;;;;10.25;5.53;;;;;;;18.49;45.67;99842.31;5032744;28;20032;-74
2023/04/18 09:17:34;;;;;;;9.20;4.77;;;;;;;18.52;45.51;99846.66;5035688;28;20026;-75
2023/04/18 09:20:01;;;;;;;8.63;5.13;;;;;;;18.69;45.28;99834.38;5037010;28;20034;-73
2023/04/18 09:22:46;;;;;;;8.70;4.80;;;;;;;18.69;44.88;99837.03;5037276;28;20071;-75
2023/04/18 09:25:24;;;;;;;8.95;4.90;;;;;;;18.79;44.64;99835.69;5037332;28;20056;-75
2023/04/18 09:27:49;;;;;;;7.60;4.53;;;;;;;18.98;44.69;99837.53;5037362;28;20021;-75
2023/04/18 09:30:31;;;;;;;8.23;4.97;;;;;;;19.17;44.79;99833.13;5036069;28;20037;-75
2023/04/18 09:32:59;;;;;;;6.75;3.38;;;;;;;19.42;44.22;99834.63;5037175;28;20025;-75
2023/04/18 09:35:25;;;;;;;6.70;3.20;;;;;;;19.65;43.79;99835.28;5037115;28;20549;-76
2023/04/18 09:37:51;;;;;;;5.15;2.67;;;;;;;19.89;42.51;99827.88;5036775;28;20057;-76
2023/04/18 09:40:17;;;;;;;10.80;3.67;;;;;;;19.97;41.54;99824.84;5037199;28;20041;-75
2023/04/18 09:42:44;;;;;;;6.73;3.37;;;;;;;20.08;41.64;99825.16;5036849;28;20409;-76
2023/04/18 09:45:11;;;;;;;6.63;3.38;;;;;;;20.24;41.18;99829.72;5036996;28;20025;-75
2023/04/18 09:47:38;;;;;;;8.63;3.90;;;;;;;20.41;41.57;99831.53;5037140;28;20451;-77
2023/04/18 09:50:08;;;;;;;7.30;3.67;;;;;;;20.46;41.33;99828.63;5036497;28;20425;-75
2023/04/18 09:52:39;;;;;;;6.93;3.92;;;;;;;20.59;40.97;99824.34;5036821;28;20456;-74
2023/04/18 09:55:07;;;;;;;7.07;3.90;;;;;;;20.70;41.20;99829.13;5036578;28;20036;-75
2023/04/18 09:57:35;;;;;;;6.70;3.75;;;;;;;20.80;40.56;99818.81;5035540;28;20033;-74
2023/04/18 10:00:16;;;;;;;7.20;3.72;;;;;;;20.74;39.20;99811.09;5034094;28;20041;-75
2023/04/18 10:02:57;;;;;;;6.95;3.80;;;;;;;20.43;39.56;99823.44;5020569;28;20022;-75
2023/04/18 10:05:27;;;;;;;7.10;3.78;;;;;;;20.57;40.50;99823.56;5020895;28;20034;-76
2023/04/18 10:07:54;;;;;;;7.07;3.80;;;;;;;20.78;39.67;99812.66;5026290;28;20036;-76
2023/04/18 10:10:19;;;;;;;7.15;3.85;;;;;;;20.98;40.40;99814.31;5026773;28;20521;-76
2023/04/18 10:12:49;;;;;;;7.18;3.60;;;;;;;21.18;39.55;99804.28;5035326;28;20128;-76
2023/04/18 10:15:15;;;;;;;6.68;3.50;;;;;;;21.26;38.82;99803.84;5030752;28;20030;-76
2023/04/18 10:17:53;;;;;;;9.13;4.23;;;;;;;21.41;38.07;99810.16;5035283;28;20033;-75
2023/04/18 10:20:27;;;;;;;6.85;3.70;;;;;;;21.56;38.19;99803.94;5036505;28;20045;-75
2023/04/18 10:22:54;;;;;;;6.65;3.30;;;;;;;21.62;38.61;99803.56;5033659;28;20057;-76
2023/04/18 10:25:37;;;;;;;7.28;3.97;;;;;;;21.67;36.47;99795.31;5036229;28;20029;-77
2023/04/18 10:28:07;;;;;;;8.45;3.50;;;;;;;21.85;37.60;99795.19;5034650;28;20025;-76
2023/04/18 10:30:39;;;;;;;6.40;3.40;;;;;;;22.01;37.50;99789.78;5031785;28;20498;-75
2023/04/18 10:33:44;;;;;;;8.48;3.60;;;;;;;22.20;36.84;99784.16;5022425;28;20056;-77
2023/04/18 10:36:13;;;;;;;7.00;3.70;;;;;;;22.33;36.75;99787.84;5027733;28;20026;-78
2023/04/18 10:38:48;;;;;;;5.97;3.05;;;;;;;22.49;36.20;99779.75;5025143;28;20029;-78
2023/04/18 10:41:14;;;;;;;8.18;3.50;;;;;;;22.69;35.58;99777.66;5029681;28;20030;-77
2023/04/18 10:46:37;;;;;;;6.38;3.13;;;;;;;22.31;36.53;99779.03;5024042;28;20030;-77
2023/04/18 10:49:26;;;;;;;6.38;3.40;;;;;;;21.86;36.62;99772.78;5024524;28;20422;-76
2023/04/18 10:51:53;;;;;;;5.57;3.00;;;;;;;21.55;36.83;99767.38;5026592;28;20029;-78
2023/04/18 10:54:29;;;;;;;7.07;3.10;;;;;;;21.18;36.81;99769.47;5022716;28;20033;-78
2023/04/18 10:57:03;;;;;;;6.37;2.70;;;;;;;20.82;37.26;99766.06;5031125;28;20021;-80
2023/04/18 10:59:33;;;;;;;5.70;2.88;;;;;;;20.55;37.73;99763.94;5021755;28;20025;-76
2023/04/18 11:02:08;;;;;;;6.70;2.85;;;;;;;20.35;37.89;99763.19;5026151;28;20459;-76
2023/04/18 11:04:34;;;;;;;6.15;3.25;;;;;;;20.23;38.47;99763.84;5033631;28;20036;-76
2023/04/18 11:07:00;;;;;;;5.50;2.90;;;;;;;20.11;38.54;99770.69;5017174;28;20022;-76
2023/04/18 11:09:25;;;;;;;5.97;3.13;;;;;;;20.01;38.43;99767.63;5025775;28;20277;-77
2023/04/18 11:12:09;;;;;;;7.23;3.07;;;;;;;19.91;38.31;99769.06;5028117;28;20130;-76
2023/04/18 11:14:41;;;;;;;5.90;2.47;;;;;;;19.95;38.72;99762.59;5026255;28;20108;-76
2023/04/18 11:17:22;;;;;;;5.88;2.75;;;;;;;19.88;37.91;99759.34;5033828;28;20379;-75
2023/04/18 11:19:48;;;;;;;5.68;2.70;;;;;;;19.90;37.63;99757.44;5035219;28;20053;-75
2023/04/18 11:22:15;;;;;;;5.53;2.55;;;;;;;20.07;37.65;99750.41;5035070;28;20052;-76
2023/04/18 11:24:40;;;;;;;5.87;2.60;;;;;;;20.54;37.41;99748.81;5035246;28;20112;-77
2023/04/18 11:27:08;;;;;;;6.13;2.40;;;;;;;21.04;37.00;99738.13;5034767;28;20076;-77
2023/04/18 11:29:34;;;;;;;7.50;2.50;;;;;;;21.43;36.30;99733.25;5028926;28;20276;-76
2023/04/18 11:31:59;;;;;;;5.22;2.53;;;;;;;21.68;36.12;99742.56;5022464;28;20052;-76